createdAt,value
2022-09-17T00:01:08.037Z,5.13
2022-09-17T00:03:35.724Z,6.88
2022-09-17T00:06:10.829Z,8.25
2022-09-17T00:08:40.235Z,7.28
2022-09-17T00:11:15.816Z,13.27
2022-09-17T00:16:12.145Z,10.98
2022-09-17T00:18:41.773Z,11.38
2022-09-17T00:21:17.143Z,10.57
2022-09-17T00:23:44.317Z,6.60
2022-09-17T00:26:11.792Z,10.88
2022-09-17T00:28:38.863Z,6.07
2022-09-17T00:31:09.267Z,8.38
2022-09-17T00:33:37.980Z,12.30
2022-09-17T00:36:05.611Z,8.50
2022-09-17T00:38:33.006Z,10.73
2022-09-17T00:41:00.632Z,7.93
2022-09-17T00:43:42.787Z,5.70
2022-09-17T00:46:24.879Z,7.60
2022-09-17T00:48:54.779Z,9.80
2022-09-17T00:51:38.968Z,10.18
2022-09-17T00:54:08.969Z,9.52
2022-09-17T00:56:38.248Z,10.80
2022-09-17T00:59:05.723Z,11.07
2022-09-17T01:01:33.345Z,11.68
2022-09-17T01:04:00.441Z,5.88
2022-09-17T01:06:56.985Z,10.82
2022-09-17T01:09:29.811Z,8.65
2022-09-17T01:12:15.292Z,14.43
2022-09-17T01:14:42.270Z,12.38
2022-09-17T01:17:18.364Z,7.15
2022-09-17T01:19:57.505Z,9.38
2022-09-17T01:22:27.253Z,5.95
2022-09-17T01:25:18.651Z,6.28
2022-09-17T01:28:05.281Z,7.38
2022-09-17T01:30:44.992Z,11.82
2022-09-17T01:33:27.239Z,9.95
2022-09-17T01:36:06.804Z,13.60
2022-09-17T01:39:07.649Z,9.90
2022-09-17T01:41:54.778Z,9.90
2022-09-17T01:45:01.026Z,9.07
2022-09-17T01:47:44.233Z,11.18
2022-09-17T01:50:20.087Z,7.00
2022-09-17T01:52:48.916Z,8.35
2022-09-17T01:55:17.637Z,13.63
2022-09-17T01:57:53.396Z,12.45
2022-09-17T02:00:20.579Z,10.65
2022-09-17T02:02:59.675Z,10.68
2022-09-17T02:05:37.718Z,9.50
2022-09-17T02:08:21.305Z,10.45
2022-09-17T02:10:52.707Z,5.57
2022-09-17T02:13:28.469Z,12.90
2022-09-17T02:15:57.842Z,8.63
2022-09-17T02:18:27.749Z,16.85
2022-09-17T02:21:03.729Z,7.75
2022-09-17T02:23:34.925Z,10.10
2022-09-17T02:26:07.022Z,7.75
2022-09-17T02:28:41.861Z,9.02
2022-09-17T02:31:09.863Z,12.25
2022-09-17T02:33:38.302Z,11.02
2022-09-17T02:36:05.518Z,9.57
2022-09-17T02:38:32.751Z,11.07
2022-09-17T02:41:25.339Z,9.73
2022-09-17T02:44:21.284Z,8.40
2022-09-17T02:47:39.314Z,7.40
2022-09-17T02:50:14.827Z,16.23
2022-09-17T02:53:20.220Z,21.98
2022-09-17T02:56:25.793Z,10.65
2022-09-17T02:59:27.112Z,14.07
2022-09-17T03:02:02.982Z,8.23
2022-09-17T03:04:30.558Z,16.25
2022-09-17T03:06:59.570Z,9.45
2022-09-17T03:09:26.704Z,8.13
2022-09-17T03:11:53.844Z,12.90
2022-09-17T03:14:20.971Z,12.25
2022-09-17T03:16:48.144Z,13.68
2022-09-17T03:19:15.426Z,17.30
2022-09-17T03:21:42.545Z,15.82
2022-09-17T03:24:11.605Z,9.05
2022-09-17T03:26:39.136Z,12.43
2022-09-17T03:29:06.276Z,14.95
2022-09-17T03:31:33.425Z,16.95
2022-09-17T03:34:00.565Z,11.75
2022-09-17T03:36:28.414Z,13.55
2022-09-17T03:38:56.571Z,15.95
2022-09-17T03:41:24.390Z,12.50
2022-09-17T03:43:51.712Z,13.98
2022-09-17T03:46:19.482Z,16.48
2022-09-17T03:48:46.754Z,15.98
2022-09-17T03:51:13.907Z,13.13
2022-09-17T03:53:41.150Z,15.73
2022-09-17T03:56:08.259Z,14.38
2022-09-17T03:58:35.792Z,12.88
2022-09-17T04:01:04.158Z,10.02
2022-09-17T04:03:32.017Z,11.68
2022-09-17T04:05:59.755Z,13.02
2022-09-17T04:08:27.156Z,11.27
2022-09-17T04:10:54.641Z,15.23
2022-09-17T04:13:21.775Z,10.85
2022-09-17T04:15:49.034Z,11.63
2022-09-17T04:18:16.238Z,17.90
2022-09-17T04:20:43.546Z,13.30
2022-09-17T04:23:12.014Z,7.78
2022-09-17T04:25:39.486Z,9.50
2022-09-17T04:28:06.922Z,12.60
2022-09-17T04:30:34.042Z,10.10
2022-09-17T04:33:01.203Z,12.25
2022-09-17T04:35:28.693Z,15.68
2022-09-17T04:37:57.561Z,18.02
2022-09-17T04:40:25.998Z,10.80
2022-09-17T04:42:59.441Z,12.18
2022-09-17T04:45:26.727Z,11.35
2022-09-17T04:47:53.791Z,10.85
2022-09-17T04:50:21.629Z,12.52
2022-09-17T04:52:48.835Z,11.75
2022-09-17T04:55:16.312Z,13.32
2022-09-17T04:57:51.288Z,10.68
2022-09-17T05:00:19.636Z,11.95
2022-09-17T05:02:48.748Z,14.98
2022-09-17T05:05:16.858Z,11.27
2022-09-17T05:07:43.983Z,9.70
2022-09-17T05:10:12.149Z,11.07
2022-09-17T05:12:39.278Z,9.70
2022-09-17T05:15:07.828Z,11.30
2022-09-17T05:17:34.898Z,13.23
2022-09-17T05:20:02.147Z,12.23
2022-09-17T05:22:29.791Z,14.15
2022-09-17T05:24:57.191Z,13.35
2022-09-17T05:27:24.303Z,10.77
2022-09-17T05:29:51.396Z,9.98
2022-09-17T05:32:18.458Z,10.18
2022-09-17T05:34:45.677Z,17.02
2022-09-17T05:37:12.747Z,14.25
2022-09-17T05:39:39.811Z,7.93
2022-09-17T05:42:07.061Z,15.30
2022-09-17T05:44:34.174Z,17.85
2022-09-17T05:47:01.644Z,16.30
2022-09-17T05:49:28.790Z,12.90
2022-09-17T05:51:55.908Z,12.63
2022-09-17T05:54:23.265Z,12.05
2022-09-17T05:56:53.424Z,12.00
2022-09-17T05:59:20.494Z,11.10
2022-09-17T06:01:47.831Z,14.15
2022-09-17T06:04:17.795Z,11.30
2022-09-17T06:06:44.902Z,9.77
2022-09-17T06:09:12.429Z,15.35
2022-09-17T06:11:39.508Z,14.18
2022-09-17T06:14:06.623Z,22.48
2022-09-17T06:16:34.016Z,18.98
2022-09-17T06:19:01.278Z,21.85
2022-09-17T06:21:28.372Z,13.63
2022-09-17T06:23:55.656Z,24.48
2022-09-17T06:26:22.797Z,18.45
2022-09-17T06:28:50.024Z,14.95
2022-09-17T06:31:17.275Z,16.80
2022-09-17T06:33:44.409Z,21.33
2022-09-17T06:36:14.564Z,16.13
2022-09-17T06:38:42.376Z,19.95
2022-09-17T06:41:09.468Z,26.67
2022-09-17T06:43:36.588Z,23.35
2022-09-17T06:46:09.280Z,21.67
2022-09-17T06:48:37.322Z,19.73
2022-09-17T06:51:07.268Z,22.17
2022-09-17T06:53:34.500Z,20.50
2022-09-17T06:56:06.234Z,26.95
2022-09-17T06:58:34.947Z,18.73
2022-09-17T07:01:03.100Z,24.92
2022-09-17T07:03:31.426Z,27.92
2022-09-17T07:05:58.592Z,20.20
2022-09-17T07:08:26.176Z,25.17
2022-09-17T07:10:57.409Z,20.00
2022-09-17T07:13:25.088Z,18.90
2022-09-17T07:15:54.103Z,25.88
2022-09-17T07:18:21.323Z,22.00
2022-09-17T07:20:56.078Z,22.92
2022-09-17T07:23:24.452Z,22.60
2022-09-17T07:25:53.306Z,18.08
2022-09-17T07:28:20.980Z,19.73
2022-09-17T07:30:48.523Z,24.45
2022-09-17T07:33:24.635Z,21.60
2022-09-17T07:36:02.755Z,20.83
2022-09-17T07:38:31.081Z,17.80
2022-09-17T07:41:03.221Z,25.05
2022-09-17T07:43:32.263Z,15.98
2022-09-17T07:46:01.593Z,22.77
2022-09-17T07:48:29.073Z,16.60
2022-09-17T07:50:56.647Z,24.42
2022-09-17T07:53:23.767Z,26.38
2022-09-17T07:55:54.931Z,17.52
2022-09-17T07:58:23.234Z,21.92
2022-09-17T08:00:50.766Z,24.85
2022-09-17T08:03:17.851Z,20.23
2022-09-17T08:05:44.999Z,18.15
2022-09-17T08:08:12.081Z,21.92
2022-09-17T08:10:39.175Z,16.58
2022-09-17T08:13:06.243Z,23.35
2022-09-17T08:15:33.325Z,17.67
2022-09-17T08:18:00.407Z,17.13
2022-09-17T08:20:27.572Z,17.13
2022-09-17T08:23:01.151Z,20.55
2022-09-17T08:25:28.320Z,16.15
2022-09-17T08:27:56.511Z,28.08
2022-09-17T08:30:23.727Z,19.70
2022-09-17T08:32:50.867Z,18.35
2022-09-17T08:35:17.963Z,18.02
2022-09-17T08:37:46.077Z,15.43
2022-09-17T08:40:16.435Z,13.43
2022-09-17T08:42:57.275Z,14.60
2022-09-17T08:45:24.373Z,18.88
2022-09-17T08:47:52.501Z,17.08
2022-09-17T08:50:19.629Z,12.82
2022-09-17T08:53:02.707Z,15.20
2022-09-17T08:55:58.331Z,15.63
2022-09-17T08:58:37.285Z,13.82
2022-09-17T09:01:28.018Z,15.93
2022-09-17T09:04:16.431Z,13.77
2022-09-17T09:06:48.045Z,9.88
2022-09-17T09:09:16.997Z,14.68
2022-09-17T09:11:44.632Z,12.43
2022-09-17T09:14:32.383Z,13.43
2022-09-17T09:17:01.051Z,13.00
2022-09-17T09:19:32.038Z,13.85
2022-09-17T09:22:04.824Z,12.05
2022-09-17T09:24:40.242Z,15.75
2022-09-17T09:27:18.514Z,13.30
2022-09-17T09:30:01.996Z,9.90
2022-09-17T09:32:37.608Z,12.93
2022-09-17T09:38:09.630Z,14.38
2022-09-17T09:40:55.007Z,15.88
2022-09-17T09:44:02.653Z,14.20
2022-09-17T09:46:50.929Z,12.60
2022-09-17T09:49:42.231Z,19.23
2022-09-17T09:52:19.786Z,12.85
2022-09-17T09:55:04.157Z,19.65
2022-09-17T09:57:39.836Z,12.73
2022-09-17T10:00:26.919Z,12.25
2022-09-17T10:03:06.938Z,15.05
2022-09-17T10:05:34.069Z,9.63
2022-09-17T10:08:11.585Z,11.60
2022-09-17T10:11:04.084Z,11.93
2022-09-17T10:13:33.710Z,13.85
2022-09-17T10:16:19.456Z,14.48
2022-09-17T10:18:48.367Z,13.27
2022-09-17T10:21:42.474Z,11.98
2022-09-17T10:24:23.105Z,11.52
2022-09-17T10:26:50.584Z,12.32
2022-09-17T10:29:20.030Z,13.05
2022-09-17T10:31:55.270Z,12.52
2022-09-17T10:34:27.498Z,8.95
2022-09-17T10:36:56.624Z,15.27
2022-09-17T10:39:26.524Z,7.95
2022-09-17T10:41:57.780Z,10.07
2022-09-17T10:44:27.078Z,9.48
2022-09-17T10:46:54.690Z,10.18
2022-09-17T10:49:36.261Z,9.93
2022-09-17T10:52:26.769Z,10.68
2022-09-17T10:55:24.498Z,13.23
2022-09-17T10:58:07.271Z,12.98
2022-09-17T11:00:40.187Z,13.05
2022-09-17T11:03:40.344Z,12.60
2022-09-17T11:06:31.338Z,8.68
2022-09-17T11:09:20.919Z,12.48
2022-09-17T11:11:56.730Z,9.52
2022-09-17T11:14:53.697Z,12.15
2022-09-17T11:17:43.623Z,10.70
2022-09-17T11:20:26.195Z,9.52
2022-09-17T11:23:25.435Z,10.43
2022-09-17T11:26:01.380Z,10.00
2022-09-17T11:28:40.585Z,10.73
2022-09-17T11:31:12.182Z,7.68
2022-09-17T11:34:28.495Z,10.57
2022-09-17T11:37:17.541Z,10.60
2022-09-17T11:39:51.505Z,7.78
2022-09-17T11:42:27.694Z,12.63
2022-09-17T11:45:03.454Z,10.10
2022-09-17T11:47:37.750Z,10.77
2022-09-17T11:50:11.243Z,9.93
2022-09-17T11:52:59.653Z,8.20
2022-09-17T11:55:32.859Z,6.93
2022-09-17T11:58:01.211Z,9.52
2022-09-17T12:00:29.448Z,11.73
2022-09-17T12:03:30.899Z,11.40
2022-09-17T12:06:01.096Z,8.57
2022-09-17T12:08:37.606Z,8.68
2022-09-17T12:11:36.451Z,9.57
2022-09-17T12:14:16.195Z,8.95
2022-09-17T12:16:45.751Z,7.72
2022-09-17T12:19:18.556Z,8.02
2022-09-17T12:21:52.728Z,5.63
2022-09-17T12:24:29.594Z,7.72
2022-09-17T12:27:33.959Z,5.43
2022-09-17T12:30:22.432Z,5.45
2022-09-17T12:33:12.506Z,8.48
2022-09-17T12:36:06.044Z,5.40
2022-09-17T12:38:33.157Z,6.05
2022-09-17T12:41:07.018Z,8.15
2022-09-17T12:43:39.960Z,8.95
2022-09-17T12:46:20.144Z,2.75
2022-09-17T12:49:19.342Z,13.50
2022-09-17T12:51:57.604Z,6.43
2022-09-17T12:54:24.615Z,7.72
2022-09-17T12:57:24.610Z,9.43
2022-09-17T13:00:07.729Z,10.82
2022-09-17T13:03:02.650Z,17.17
2022-09-17T13:05:50.665Z,4.78
2022-09-17T13:08:26.615Z,9.02
2022-09-17T13:11:10.725Z,14.45
2022-09-17T13:13:47.447Z,4.05
2022-09-17T13:16:20.767Z,4.28
2022-09-17T13:19:19.097Z,3.72
2022-09-17T13:21:55.562Z,4.20
2022-09-17T13:24:25.232Z,6.03
2022-09-17T13:26:54.025Z,8.02
2022-09-17T13:29:48.911Z,6.45
2022-09-17T13:32:34.591Z,6.20
2022-09-17T13:35:13.615Z,9.02
2022-09-17T13:37:52.638Z,8.05
2022-09-17T13:40:29.953Z,7.72
2022-09-17T13:42:59.516Z,5.40
2022-09-17T13:45:26.704Z,8.73
2022-09-17T13:48:05.591Z,6.38
2022-09-17T13:50:40.775Z,6.63
2022-09-17T13:53:14.258Z,6.68
2022-09-17T13:55:51.222Z,4.00
2022-09-17T13:58:18.606Z,3.67
2022-09-17T14:00:54.578Z,2.97
2022-09-17T14:03:46.478Z,6.15
2022-09-17T14:06:18.665Z,7.13
2022-09-17T14:08:46.467Z,6.05
2022-09-17T14:11:22.652Z,8.65
2022-09-17T14:13:52.778Z,8.07
2022-09-17T14:16:25.688Z,12.65
2022-09-17T14:19:21.964Z,7.88
2022-09-17T14:22:00.506Z,7.05
2022-09-17T14:24:46.073Z,4.28
2022-09-17T14:27:27.755Z,5.47
2022-09-17T14:29:54.768Z,7.07
2022-09-17T14:32:46.678Z,6.50
2022-09-17T14:35:19.961Z,11.13
2022-09-17T14:37:53.720Z,9.57
2022-09-17T14:40:21.749Z,6.82
2022-09-17T14:42:51.887Z,6.32
2022-09-17T14:45:38.312Z,8.15
2022-09-17T14:48:27.463Z,4.57
2022-09-17T14:51:19.148Z,6.18
2022-09-17T14:53:47.602Z,5.18
2022-09-17T14:56:19.847Z,4.10
2022-09-17T14:58:49.209Z,3.90
2022-09-17T15:01:24.680Z,2.95
2022-09-17T15:04:13.585Z,4.60
2022-09-17T15:06:41.601Z,2.58
2022-09-17T15:09:34.674Z,4.88
2022-09-17T15:12:02.213Z,1.98
2022-09-17T15:14:36.311Z,2.75
2022-09-17T15:17:04.997Z,3.38
2022-09-17T15:19:35.945Z,2.20
2022-09-17T15:22:08.433Z,1.15
2022-09-17T15:24:41.361Z,1.00
2022-09-17T15:27:29.266Z,2.80
2022-09-17T15:30:00.656Z,1.35
2022-09-17T15:32:27.777Z,2.70
2022-09-17T15:35:13.397Z,2.15
2022-09-17T15:38:11.473Z,2.60
2022-09-17T15:40:41.044Z,7.43
2022-09-17T15:43:18.980Z,3.00
2022-09-17T15:45:46.273Z,5.38
2022-09-17T15:48:28.567Z,2.88
2022-09-17T15:50:57.720Z,4.07
2022-09-17T15:53:26.750Z,1.38
2022-09-17T15:56:17.069Z,4.30
2022-09-17T15:58:47.090Z,2.30
2022-09-17T16:01:14.138Z,3.33
2022-09-17T16:03:41.641Z,1.35
2022-09-17T16:06:25.291Z,3.10
2022-09-17T16:08:55.899Z,2.90
2022-09-17T16:11:24.783Z,1.45
2022-09-17T16:13:53.645Z,2.70
2022-09-17T16:16:22.662Z,3.00
2022-09-17T16:18:50.505Z,2.22
2022-09-17T16:21:18.933Z,1.77
2022-09-17T16:23:46.400Z,4.15
2022-09-17T16:26:21.059Z,2.42
2022-09-17T16:28:49.908Z,3.37
2022-09-17T16:31:17.139Z,3.38
2022-09-17T16:33:44.254Z,4.82
2022-09-17T16:36:11.484Z,3.53
2022-09-17T16:38:38.905Z,2.83
2022-09-17T16:41:06.132Z,3.05
2022-09-17T16:43:34.518Z,3.30
2022-09-17T16:46:06.067Z,4.35
2022-09-17T16:48:33.860Z,1.25
2022-09-17T16:51:03.889Z,4.32
2022-09-17T16:53:31.041Z,1.27
2022-09-17T16:55:58.166Z,2.67
2022-09-17T16:58:25.608Z,5.72
2022-09-17T17:00:52.775Z,5.50
2022-09-17T17:03:19.941Z,5.00
2022-09-17T17:05:47.117Z,3.15
2022-09-17T17:08:14.647Z,2.78
2022-09-17T17:10:41.915Z,4.13
2022-09-17T17:13:09.004Z,2.45
2022-09-17T17:15:36.067Z,3.63
2022-09-17T17:18:03.242Z,6.93
2022-09-17T17:20:31.966Z,4.78
2022-09-17T17:22:59.048Z,3.80
2022-09-17T17:25:27.027Z,1.73
2022-09-17T17:27:54.128Z,4.70
2022-09-17T17:30:22.032Z,2.25
2022-09-17T17:32:50.810Z,5.72
2022-09-17T17:35:18.782Z,4.90
2022-09-17T17:37:46.182Z,3.42
2022-09-17T17:40:13.346Z,4.45
2022-09-17T17:42:43.829Z,3.92
2022-09-17T17:45:11.218Z,5.97
2022-09-17T17:47:38.341Z,3.95
2022-09-17T17:50:05.785Z,7.88
2022-09-17T17:52:32.937Z,4.63
2022-09-17T17:55:00.023Z,4.28
2022-09-17T17:57:27.136Z,4.68
2022-09-17T17:59:54.226Z,5.50
2022-09-17T18:02:21.441Z,5.57
2022-09-17T18:04:48.587Z,2.92
2022-09-17T18:07:15.628Z,3.03
2022-09-17T18:09:43.043Z,11.23
2022-09-17T18:12:10.120Z,5.10
2022-09-17T18:14:37.258Z,4.38
2022-09-17T18:17:04.429Z,4.75
2022-09-17T18:19:31.475Z,2.88
2022-09-17T18:21:58.575Z,2.67
2022-09-17T18:24:25.936Z,2.63
2022-09-17T18:26:52.983Z,5.13
2022-09-17T18:29:20.059Z,4.22
2022-09-17T18:31:47.242Z,6.43
2022-09-17T18:34:15.869Z,3.38
2022-09-17T18:36:47.579Z,6.15
2022-09-17T18:39:57.355Z,6.10
2022-09-17T18:42:05.042Z,4.95
2022-09-17T18:44:32.140Z,3.25
2022-09-17T18:46:59.286Z,3.28
2022-09-17T18:49:26.377Z,3.97
2022-09-17T18:51:53.555Z,4.75
2022-09-17T18:54:20.672Z,6.95
2022-09-17T18:56:47.752Z,7.80
2022-09-17T18:59:14.824Z,7.30
2022-09-17T19:01:42.050Z,2.53
2022-09-17T19:04:10.014Z,4.38
2022-09-17T19:06:37.125Z,5.38
2022-09-17T19:09:04.966Z,5.55
2022-09-17T19:11:32.144Z,3.63
2022-09-17T19:13:59.396Z,3.00
2022-09-17T19:16:26.527Z,4.20
2022-09-17T19:18:53.765Z,4.32
2022-09-17T19:21:21.835Z,2.60
2022-09-17T19:23:50.810Z,2.70
2022-09-17T19:26:22.784Z,4.72
2022-09-17T19:28:54.311Z,3.97
2022-09-17T19:31:21.753Z,2.72
2022-09-17T19:33:48.948Z,1.25
2022-09-17T19:36:17.635Z,3.50
2022-09-17T19:38:45.839Z,2.90
2022-09-17T19:41:15.410Z,3.67
2022-09-17T19:43:42.675Z,4.15
2022-09-17T19:46:15.251Z,6.22
2022-09-17T19:48:50.408Z,3.38
2022-09-17T19:51:17.922Z,2.90
2022-09-17T19:53:45.578Z,3.53
2022-09-17T19:56:18.068Z,2.20
2022-09-17T19:58:45.634Z,4.97
2022-09-17T20:01:13.132Z,3.30
2022-09-17T20:03:41.681Z,1.83
2022-09-17T20:06:10.990Z,3.13
2022-09-17T20:08:46.802Z,4.00
2022-09-17T20:11:14.930Z,5.03
2022-09-17T20:13:42.241Z,4.47
2022-09-17T20:16:15.018Z,3.03
2022-09-17T20:18:43.810Z,3.80
2022-09-17T20:21:25.417Z,5.68
2022-09-17T20:23:52.501Z,5.07
2022-09-17T20:26:19.692Z,5.43
2022-09-17T20:28:48.368Z,4.93
2022-09-17T20:31:18.698Z,7.60
2022-09-17T20:33:46.412Z,6.22
2022-09-17T20:36:15.769Z,6.47
2022-09-17T20:41:32.104Z,5.25
2022-09-17T20:43:59.198Z,6.57
2022-09-17T20:46:29.186Z,5.95
2022-09-17T20:48:57.540Z,8.90
2022-09-17T20:51:27.180Z,5.65
2022-09-17T20:53:54.283Z,4.30
2022-09-17T20:56:26.629Z,9.02
2022-09-17T20:59:17.697Z,5.40
2022-09-17T21:01:46.587Z,9.40
2022-09-17T21:04:16.419Z,9.02
2022-09-17T21:06:44.050Z,4.72
2022-09-17T21:09:15.503Z,7.82
2022-09-17T21:11:47.000Z,7.18
2022-09-17T21:14:15.761Z,10.80
2022-09-17T21:16:43.214Z,11.95
2022-09-17T21:19:11.863Z,9.63
2022-09-17T21:21:38.911Z,9.40
2022-09-17T21:24:07.073Z,9.68
2022-09-17T21:26:34.518Z,9.65
2022-09-17T21:29:02.013Z,7.38
2022-09-17T21:31:33.660Z,6.18
2022-09-17T21:34:04.891Z,9.75
2022-09-17T21:36:34.449Z,7.20
2022-09-17T21:39:15.854Z,5.55
2022-09-17T21:41:43.717Z,8.52
2022-09-17T21:44:11.658Z,8.00
2022-09-17T21:46:39.205Z,8.68
2022-09-17T21:49:06.439Z,6.40
2022-09-17T21:51:38.527Z,6.22
2022-09-17T21:54:10.709Z,11.77
2022-09-17T21:56:38.175Z,10.43
2022-09-17T21:59:07.421Z,6.93
2022-09-17T22:01:39.676Z,7.45
2022-09-17T22:04:09.020Z,8.40
2022-09-17T22:06:36.816Z,12.80
2022-09-17T22:09:05.429Z,9.35
2022-09-17T22:11:34.400Z,9.70
2022-09-17T22:14:12.994Z,8.10
2022-09-17T22:16:42.672Z,15.48
2022-09-17T22:19:12.068Z,8.50
2022-09-17T22:21:41.407Z,9.15
2022-09-17T22:24:09.966Z,6.47
2022-09-17T22:26:39.735Z,8.68
2022-09-17T22:29:09.436Z,9.05
2022-09-17T22:31:36.780Z,10.52
2022-09-17T22:34:08.046Z,8.15
2022-09-17T22:36:35.352Z,8.88
2022-09-17T22:39:02.809Z,12.82
2022-09-17T22:41:31.365Z,10.18
2022-09-17T22:44:03.519Z,8.38
2022-09-17T22:46:32.957Z,7.72
2022-09-17T22:49:00.966Z,10.27
2022-09-17T22:51:29.292Z,9.32
2022-09-17T22:53:57.053Z,3.88
2022-09-17T22:56:25.043Z,6.15
2022-09-17T22:58:52.111Z,9.65
2022-09-17T23:01:21.524Z,6.93
2022-09-17T23:03:50.674Z,3.92
2022-09-17T23:06:20.376Z,6.38
2022-09-17T23:08:48.065Z,5.78
2022-09-17T23:11:20.375Z,6.22
2022-09-17T23:13:48.172Z,5.40
2022-09-17T23:16:15.522Z,4.75
2022-09-17T23:18:43.053Z,9.93
2022-09-17T23:21:18.439Z,6.35
2022-09-17T23:23:47.976Z,8.43
2022-09-17T23:26:22.877Z,7.45
2022-09-17T23:28:50.055Z,6.22
2022-09-17T23:31:19.353Z,4.47
2022-09-17T23:33:47.397Z,10.98
2022-09-17T23:36:17.599Z,6.30
2022-09-17T23:38:45.374Z,5.00
2022-09-17T23:41:17.075Z,5.43
2022-09-17T23:43:46.499Z,6.53
2022-09-17T23:46:14.062Z,4.53
2022-09-17T23:48:41.388Z,5.25
2022-09-17T23:51:08.882Z,3.45
2022-09-17T23:53:36.396Z,6.93
2022-09-17T23:56:05.137Z,3.95
2022-09-17T23:58:32.985Z,4.97
